sensor_id;sensor_type;location;lat;lon;timestamp;P1;durP1;ratioP1;P2;durP2;ratioP2
46897;SDS011;32646;50.958;6.258;2023-03-14T00:00:58;7.63;;;1.92;;
46897;SDS011;32646;50.958;6.258;2023-03-14T00:03:25;5.00;;;0.90;;
46897;SDS011;32646;50.958;6.258;2023-03-14T00:05:51;5.85;;;1.35;;
46897;SDS011;32646;50.958;6.258;2023-03-14T00:08:18;6.65;;;1.30;;
46897;SDS011;32646;50.958;6.258;2023-03-14T00:10:44;3.45;;;0.52;;
46897;SDS011;32646;50.958;6.258;2023-03-14T00:13:11;2.05;;;0.47;;
46897;SDS011;32646;50.958;6.258;2023-03-14T00:15:37;1.38;;;0.63;;
46897;SDS011;32646;50.958;6.258;2023-03-14T00:18:04;4.38;;;1.10;;
46897;SDS011;32646;50.958;6.258;2023-03-14T00:20:31;2.15;;;0.90;;
46897;SDS011;32646;50.958;6.258;2023-03-14T00:22:57;4.95;;;0.75;;
46897;SDS011;32646;50.958;6.258;2023-03-14T00:25:24;1.75;;;0.52;;
46897;SDS011;32646;50.958;6.258;2023-03-14T00:27:51;2.25;;;0.70;;
46897;SDS011;32646;50.958;6.258;2023-03-14T00:30:17;1.60;;;0.63;;
46897;SDS011;32646;50.958;6.258;2023-03-14T00:32:44;3.50;;;0.80;;
46897;SDS011;32646;50.958;6.258;2023-03-14T00:35:11;2.33;;;0.68;;
46897;SDS011;32646;50.958;6.258;2023-03-14T00:37:37;4.20;;;0.80;;
46897;SDS011;32646;50.958;6.258;2023-03-14T00:40:04;2.20;;;0.80;;
46897;SDS011;32646;50.958;6.258;2023-03-14T00:42:32;5.68;;;1.00;;
46897;SDS011;32646;50.958;6.258;2023-03-14T00:44:58;1.95;;;0.63;;
46897;SDS011;32646;50.958;6.258;2023-03-14T00:47:25;1.48;;;0.60;;
46897;SDS011;32646;50.958;6.258;2023-03-14T00:49:52;4.47;;;0.63;;
46897;SDS011;32646;50.958;6.258;2023-03-14T00:52:18;2.72;;;0.80;;
46897;SDS011;32646;50.958;6.258;2023-03-14T00:54:45;3.03;;;0.55;;
46897;SDS011;32646;50.958;6.258;2023-03-14T00:57:11;2.40;;;0.57;;
46897;SDS011;32646;50.958;6.258;2023-03-14T00:59:38;4.72;;;1.13;;
46897;SDS011;32646;50.958;6.258;2023-03-14T01:02:10;4.93;;;1.05;;
46897;SDS011;32646;50.958;6.258;2023-03-14T01:04:39;7.32;;;1.20;;
46897;SDS011;32646;50.958;6.258;2023-03-14T01:07:06;4.88;;;0.73;;
46897;SDS011;32646;50.958;6.258;2023-03-14T01:09:33;3.88;;;1.08;;
46897;SDS011;32646;50.958;6.258;2023-03-14T01:11:59;2.35;;;0.95;;
46897;SDS011;32646;50.958;6.258;2023-03-14T01:14:26;2.00;;;0.80;;
46897;SDS011;32646;50.958;6.258;2023-03-14T01:16:52;9.82;;;1.10;;
46897;SDS011;32646;50.958;6.258;2023-03-14T01:19:19;3.70;;;1.50;;
46897;SDS011;32646;50.958;6.258;2023-03-14T01:21:46;2.38;;;0.57;;
46897;SDS011;32646;50.958;6.258;2023-03-14T01:24:12;3.63;;;0.50;;
46897;SDS011;32646;50.958;6.258;2023-03-14T01:26:39;4.43;;;0.80;;
46897;SDS011;32646;50.958;6.258;2023-03-14T01:29:05;4.25;;;0.73;;
46897;SDS011;32646;50.958;6.258;2023-03-14T01:31:32;4.95;;;1.00;;
46897;SDS011;32646;50.958;6.258;2023-03-14T01:33:58;5.88;;;0.82;;
46897;SDS011;32646;50.958;6.258;2023-03-14T01:36:25;3.17;;;0.63;;
46897;SDS011;32646;50.958;6.258;2023-03-14T01:38:56;3.42;;;0.57;;
46897;SDS011;32646;50.958;6.258;2023-03-14T01:41:24;5.32;;;0.73;;
46897;SDS011;32646;50.958;6.258;2023-03-14T01:43:51;6.15;;;0.80;;
46897;SDS011;32646;50.958;6.258;2023-03-14T01:46:21;3.65;;;0.98;;
46897;SDS011;32646;50.958;6.258;2023-03-14T01:48:56;6.30;;;0.77;;
46897;SDS011;32646;50.958;6.258;2023-03-14T01:54:06;2.75;;;0.50;;
46897;SDS011;32646;50.958;6.258;2023-03-14T01:56:37;6.47;;;1.48;;
46897;SDS011;32646;50.958;6.258;2023-03-14T01:59:08;4.30;;;0.90;;
46897;SDS011;32646;50.958;6.258;2023-03-14T02:01:36;6.90;;;0.90;;
46897;SDS011;32646;50.958;6.258;2023-03-14T02:04:07;1.73;;;0.63;;
46897;SDS011;32646;50.958;6.258;2023-03-14T02:06:37;1.65;;;0.52;;
46897;SDS011;32646;50.958;6.258;2023-03-14T02:09:12;4.97;;;0.90;;
46897;SDS011;32646;50.958;6.258;2023-03-14T02:11:39;2.72;;;0.75;;
46897;SDS011;32646;50.958;6.258;2023-03-14T02:14:06;1.95;;;0.60;;
46897;SDS011;32646;50.958;6.258;2023-03-14T02:16:36;5.70;;;0.90;;
46897;SDS011;32646;50.958;6.258;2023-03-14T02:19:02;5.95;;;1.58;;
46897;SDS011;32646;50.958;6.258;2023-03-14T02:27:10;3.13;;;0.73;;
46897;SDS011;32646;50.958;6.258;2023-03-14T02:29:45;3.53;;;0.77;;
46897;SDS011;32646;50.958;6.258;2023-03-14T02:32:17;5.03;;;0.90;;
46897;SDS011;32646;50.958;6.258;2023-03-14T02:34:45;3.97;;;0.80;;
46897;SDS011;32646;50.958;6.258;2023-03-14T02:37:16;4.85;;;0.75;;
46897;SDS011;32646;50.958;6.258;2023-03-14T02:39:46;4.55;;;0.82;;
46897;SDS011;32646;50.958;6.258;2023-03-14T02:42:13;3.80;;;0.95;;
46897;SDS011;32646;50.958;6.258;2023-03-14T02:44:49;6.47;;;1.05;;
46897;SDS011;32646;50.958;6.258;2023-03-14T02:47:22;4.88;;;0.98;;
46897;SDS011;32646;50.958;6.258;2023-03-14T02:49:55;5.15;;;1.02;;
46897;SDS011;32646;50.958;6.258;2023-03-14T02:52:26;6.32;;;1.35;;
46897;SDS011;32646;50.958;6.258;2023-03-14T02:54:53;5.25;;;1.02;;
46897;SDS011;32646;50.958;6.258;2023-03-14T02:57:19;5.15;;;1.45;;
46897;SDS011;32646;50.958;6.258;2023-03-14T02:59:46;6.95;;;1.40;;
46897;SDS011;32646;50.958;6.258;2023-03-14T03:02:13;8.20;;;1.90;;
46897;SDS011;32646;50.958;6.258;2023-03-14T03:04:43;4.82;;;1.42;;
46897;SDS011;32646;50.958;6.258;2023-03-14T03:07:33;7.57;;;1.58;;
46897;SDS011;32646;50.958;6.258;2023-03-14T03:10:03;3.80;;;1.30;;
46897;SDS011;32646;50.958;6.258;2023-03-14T03:12:30;5.85;;;1.70;;
46897;SDS011;32646;50.958;6.258;2023-03-14T03:14:57;7.13;;;1.15;;
46897;SDS011;32646;50.958;6.258;2023-03-14T03:17:23;3.08;;;0.80;;
46897;SDS011;32646;50.958;6.258;2023-03-14T03:19:50;2.65;;;0.63;;
46897;SDS011;32646;50.958;6.258;2023-03-14T03:22:19;6.35;;;1.35;;
46897;SDS011;32646;50.958;6.258;2023-03-14T03:24:46;2.58;;;0.82;;
46897;SDS011;32646;50.958;6.258;2023-03-14T03:27:12;6.22;;;1.02;;
46897;SDS011;32646;50.958;6.258;2023-03-14T03:29:39;4.00;;;1.20;;
46897;SDS011;32646;50.958;6.258;2023-03-14T03:32:05;3.85;;;1.05;;
46897;SDS011;32646;50.958;6.258;2023-03-14T03:34:42;4.20;;;0.93;;
46897;SDS011;32646;50.958;6.258;2023-03-14T03:37:12;2.63;;;0.90;;
46897;SDS011;32646;50.958;6.258;2023-03-14T03:39:49;4.50;;;0.95;;
46897;SDS011;32646;50.958;6.258;2023-03-14T03:42:17;3.03;;;0.77;;
46897;SDS011;32646;50.958;6.258;2023-03-14T03:44:45;4.25;;;0.82;;
46897;SDS011;32646;50.958;6.258;2023-03-14T03:47:12;5.68;;;1.10;;
46897;SDS011;32646;50.958;6.258;2023-03-14T03:49:39;3.03;;;0.63;;
46897;SDS011;32646;50.958;6.258;2023-03-14T03:52:05;4.15;;;0.75;;
46897;SDS011;32646;50.958;6.258;2023-03-14T03:54:32;2.95;;;0.75;;
46897;SDS011;32646;50.958;6.258;2023-03-14T03:56:59;2.42;;;0.75;;
46897;SDS011;32646;50.958;6.258;2023-03-14T03:59:26;3.38;;;0.63;;
46897;SDS011;32646;50.958;6.258;2023-03-14T04:01:56;2.92;;;0.63;;
46897;SDS011;32646;50.958;6.258;2023-03-14T04:04:38;6.90;;;0.80;;
46897;SDS011;32646;50.958;6.258;2023-03-14T04:07:07;2.72;;;0.45;;
46897;SDS011;32646;50.958;6.258;2023-03-14T04:09:37;0.50;;;0.40;;
46897;SDS011;32646;50.958;6.258;2023-03-14T04:12:10;1.80;;;0.60;;
46897;SDS011;32646;50.958;6.258;2023-03-14T04:14:36;4.38;;;0.70;;
46897;SDS011;32646;50.958;6.258;2023-03-14T04:17:03;2.17;;;0.40;;
46897;SDS011;32646;50.958;6.258;2023-03-14T04:19:30;0.65;;;0.38;;
46897;SDS011;32646;50.958;6.258;2023-03-14T04:21:56;0.93;;;0.40;;
46897;SDS011;32646;50.958;6.258;2023-03-14T04:24:23;1.65;;;0.43;;
46897;SDS011;32646;50.958;6.258;2023-03-14T04:26:50;0.35;;;0.20;;
46897;SDS011;32646;50.958;6.258;2023-03-14T04:29:16;0.38;;;0.17;;
46897;SDS011;32646;50.958;6.258;2023-03-14T04:31:43;1.45;;;0.63;;
46897;SDS011;32646;50.958;6.258;2023-03-14T04:34:09;2.50;;;0.47;;
46897;SDS011;32646;50.958;6.258;2023-03-14T04:36:36;1.75;;;0.30;;
46897;SDS011;32646;50.958;6.258;2023-03-14T04:39:05;0.57;;;0.28;;
46897;SDS011;32646;50.958;6.258;2023-03-14T04:41:31;0.47;;;0.20;;
46897;SDS011;32646;50.958;6.258;2023-03-14T04:43:58;0.25;;;0.13;;
46897;SDS011;32646;50.958;6.258;2023-03-14T04:46:25;0.22;;;0.15;;
46897;SDS011;32646;50.958;6.258;2023-03-14T04:48:51;0.25;;;0.10;;
46897;SDS011;32646;50.958;6.258;2023-03-14T04:51:18;0.80;;;0.30;;
46897;SDS011;32646;50.958;6.258;2023-03-14T04:53:44;0.13;;;0.13;;
46897;SDS011;32646;50.958;6.258;2023-03-14T04:56:11;0.40;;;0.13;;
46897;SDS011;32646;50.958;6.258;2023-03-14T04:58:37;1.30;;;0.25;;
46897;SDS011;32646;50.958;6.258;2023-03-14T05:01:04;0.30;;;0.15;;
46897;SDS011;32646;50.958;6.258;2023-03-14T05:03:31;1.17;;;0.30;;
46897;SDS011;32646;50.958;6.258;2023-03-14T05:05:58;0.70;;;0.22;;
46897;SDS011;32646;50.958;6.258;2023-03-14T05:08:24;1.65;;;0.25;;
46897;SDS011;32646;50.958;6.258;2023-03-14T05:10:52;0.43;;;0.43;;
46897;SDS011;32646;50.958;6.258;2023-03-14T05:13:19;0.28;;;0.10;;
46897;SDS011;32646;50.958;6.258;2023-03-14T05:15:45;0.08;;;0.08;;
46897;SDS011;32646;50.958;6.258;2023-03-14T05:18:12;0.40;;;0.20;;
46897;SDS011;32646;50.958;6.258;2023-03-14T05:20:38;0.13;;;0.13;;
46897;SDS011;32646;50.958;6.258;2023-03-14T05:23:05;0.50;;;0.22;;
46897;SDS011;32646;50.958;6.258;2023-03-14T05:25:31;0.35;;;0.20;;
46897;SDS011;32646;50.958;6.258;2023-03-14T05:27:58;0.13;;;0.13;;
46897;SDS011;32646;50.958;6.258;2023-03-14T05:30:24;0.03;;;0.03;;
46897;SDS011;32646;50.958;6.258;2023-03-14T05:32:51;0.68;;;0.10;;
46897;SDS011;32646;50.958;6.258;2023-03-14T05:35:17;0.60;;;0.38;;
46897;SDS011;32646;50.958;6.258;2023-03-14T05:37:44;0.55;;;0.20;;
46897;SDS011;32646;50.958;6.258;2023-03-14T05:40:11;0.40;;;0.30;;
46897;SDS011;32646;50.958;6.258;2023-03-14T05:42:38;0.90;;;0.25;;
46897;SDS011;32646;50.958;6.258;2023-03-14T05:45:04;2.45;;;0.28;;
46897;SDS011;32646;50.958;6.258;2023-03-14T05:47:31;0.05;;;0.05;;
46897;SDS011;32646;50.958;6.258;2023-03-14T05:49:58;0.50;;;0.22;;
46897;SDS011;32646;50.958;6.258;2023-03-14T05:52:24;0.38;;;0.20;;
46897;SDS011;32646;50.958;6.258;2023-03-14T05:54:51;0.70;;;0.20;;
46897;SDS011;32646;50.958;6.258;2023-03-14T05:57:17;0.22;;;0.20;;
46897;SDS011;32646;50.958;6.258;2023-03-14T05:59:44;0.17;;;0.10;;
46897;SDS011;32646;50.958;6.258;2023-03-14T06:02:10;0.10;;;0.10;;
46897;SDS011;32646;50.958;6.258;2023-03-14T06:04:37;1.60;;;0.15;;
46897;SDS011;32646;50.958;6.258;2023-03-14T06:07:04;0.20;;;0.20;;
46897;SDS011;32646;50.958;6.258;2023-03-14T06:09:30;0.75;;;0.15;;
46897;SDS011;32646;50.958;6.258;2023-03-14T06:11:57;0.10;;;0.10;;
46897;SDS011;32646;50.958;6.258;2023-03-14T06:14:23;0.57;;;0.25;;
46897;SDS011;32646;50.958;6.258;2023-03-14T06:16:50;0.40;;;0.22;;
46897;SDS011;32646;50.958;6.258;2023-03-14T06:19:16;1.80;;;0.30;;
46897;SDS011;32646;50.958;6.258;2023-03-14T06:21:43;0.30;;;0.20;;
46897;SDS011;32646;50.958;6.258;2023-03-14T06:24:10;0.10;;;0.10;;
46897;SDS011;32646;50.958;6.258;2023-03-14T06:26:36;1.85;;;0.30;;
46897;SDS011;32646;50.958;6.258;2023-03-14T06:29:03;0.22;;;0.20;;
46897;SDS011;32646;50.958;6.258;2023-03-14T06:31:30;0.57;;;0.20;;
46897;SDS011;32646;50.958;6.258;2023-03-14T06:33:57;2.00;;;0.40;;
46897;SDS011;32646;50.958;6.258;2023-03-14T06:36:23;1.02;;;0.20;;
46897;SDS011;32646;50.958;6.258;2023-03-14T06:38:50;0.60;;;0.22;;
46897;SDS011;32646;50.958;6.258;2023-03-14T06:41:16;0.88;;;0.30;;
46897;SDS011;32646;50.958;6.258;2023-03-14T06:43:43;0.75;;;0.30;;
46897;SDS011;32646;50.958;6.258;2023-03-14T06:46:10;1.00;;;0.30;;
46897;SDS011;32646;50.958;6.258;2023-03-14T06:48:36;1.05;;;0.50;;
46897;SDS011;32646;50.958;6.258;2023-03-14T06:51:03;0.73;;;0.35;;
46897;SDS011;32646;50.958;6.258;2023-03-14T06:53:30;1.08;;;0.32;;
46897;SDS011;32646;50.958;6.258;2023-03-14T06:55:56;0.70;;;0.38;;
46897;SDS011;32646;50.958;6.258;2023-03-14T06:58:23;0.50;;;0.28;;
46897;SDS011;32646;50.958;6.258;2023-03-14T07:00:49;0.55;;;0.22;;
46897;SDS011;32646;50.958;6.258;2023-03-14T07:03:15;1.35;;;0.40;;
46897;SDS011;32646;50.958;6.258;2023-03-14T07:05:42;0.82;;;0.30;;
46897;SDS011;32646;50.958;6.258;2023-03-14T07:08:09;0.63;;;0.30;;
46897;SDS011;32646;50.958;6.258;2023-03-14T07:10:35;0.98;;;0.40;;
46897;SDS011;32646;50.958;6.258;2023-03-14T07:13:02;0.52;;;0.30;;
46897;SDS011;32646;50.958;6.258;2023-03-14T07:15:28;1.08;;;0.40;;
46897;SDS011;32646;50.958;6.258;2023-03-14T07:17:56;1.15;;;0.47;;
46897;SDS011;32646;50.958;6.258;2023-03-14T07:20:22;1.90;;;0.40;;
46897;SDS011;32646;50.958;6.258;2023-03-14T07:22:49;1.65;;;0.38;;
46897;SDS011;32646;50.958;6.258;2023-03-14T07:25:16;1.48;;;0.40;;
46897;SDS011;32646;50.958;6.258;2023-03-14T07:27:44;0.43;;;0.28;;
46897;SDS011;32646;50.958;6.258;2023-03-14T07:30:12;0.38;;;0.22;;
46897;SDS011;32646;50.958;6.258;2023-03-14T07:32:39;0.60;;;0.25;;
46897;SDS011;32646;50.958;6.258;2023-03-14T07:35:05;1.55;;;0.55;;
46897;SDS011;32646;50.958;6.258;2023-03-14T07:37:33;1.13;;;0.45;;
46897;SDS011;32646;50.958;6.258;2023-03-14T07:39:59;0.75;;;0.38;;
46897;SDS011;32646;50.958;6.258;2023-03-14T07:42:26;2.53;;;0.32;;
46897;SDS011;32646;50.958;6.258;2023-03-14T07:44:52;0.95;;;0.35;;
46897;SDS011;32646;50.958;6.258;2023-03-14T07:47:19;0.75;;;0.32;;
46897;SDS011;32646;50.958;6.258;2023-03-14T07:49:45;2.03;;;0.40;;
46897;SDS011;32646;50.958;6.258;2023-03-14T07:52:12;1.38;;;0.50;;
46897;SDS011;32646;50.958;6.258;2023-03-14T07:54:38;0.88;;;0.45;;
46897;SDS011;32646;50.958;6.258;2023-03-14T07:57:05;1.33;;;0.45;;
46897;SDS011;32646;50.958;6.258;2023-03-14T07:59:31;1.58;;;0.60;;
46897;SDS011;32646;50.958;6.258;2023-03-14T08:01:58;0.75;;;0.30;;
46897;SDS011;32646;50.958;6.258;2023-03-14T08:04:24;1.80;;;0.60;;
46897;SDS011;32646;50.958;6.258;2023-03-14T08:06:51;1.58;;;0.68;;
46897;SDS011;32646;50.958;6.258;2023-03-14T08:09:17;1.30;;;0.40;;
46897;SDS011;32646;50.958;6.258;2023-03-14T08:11:44;1.83;;;0.68;;
46897;SDS011;32646;50.958;6.258;2023-03-14T08:14:11;0.95;;;0.40;;
46897;SDS011;32646;50.958;6.258;2023-03-14T08:16:37;1.20;;;0.60;;
46897;SDS011;32646;50.958;6.258;2023-03-14T08:19:04;1.80;;;0.60;;
46897;SDS011;32646;50.958;6.258;2023-03-14T08:21:30;2.20;;;0.65;;
46897;SDS011;32646;50.958;6.258;2023-03-14T08:23:57;2.03;;;0.60;;
46897;SDS011;32646;50.958;6.258;2023-03-14T08:26:23;1.40;;;0.50;;
46897;SDS011;32646;50.958;6.258;2023-03-14T08:28:50;1.05;;;0.43;;
46897;SDS011;32646;50.958;6.258;2023-03-14T08:31:16;1.35;;;0.50;;
46897;SDS011;32646;50.958;6.258;2023-03-14T08:33:43;1.52;;;0.65;;
46897;SDS011;32646;50.958;6.258;2023-03-14T08:36:10;1.33;;;0.57;;
46897;SDS011;32646;50.958;6.258;2023-03-14T08:38:37;1.48;;;0.50;;
46897;SDS011;32646;50.958;6.258;2023-03-14T08:41:03;2.08;;;0.52;;
46897;SDS011;32646;50.958;6.258;2023-03-14T08:43:30;0.93;;;0.40;;
46897;SDS011;32646;50.958;6.258;2023-03-14T08:45:57;1.33;;;0.45;;
46897;SDS011;32646;50.958;6.258;2023-03-14T08:48:24;1.75;;;0.50;;
46897;SDS011;32646;50.958;6.258;2023-03-14T08:50:51;1.30;;;0.52;;
46897;SDS011;32646;50.958;6.258;2023-03-14T08:53:17;1.35;;;0.50;;
46897;SDS011;32646;50.958;6.258;2023-03-14T08:55:44;1.30;;;0.52;;
46897;SDS011;32646;50.958;6.258;2023-03-14T08:58:10;1.65;;;0.52;;
46897;SDS011;32646;50.958;6.258;2023-03-14T09:00:38;1.42;;;0.50;;
46897;SDS011;32646;50.958;6.258;2023-03-14T09:03:05;1.58;;;0.70;;
46897;SDS011;32646;50.958;6.258;2023-03-14T09:05:32;2.00;;;0.80;;
46897;SDS011;32646;50.958;6.258;2023-03-14T09:10:33;1.25;;;0.57;;
46897;SDS011;32646;50.958;6.258;2023-03-14T09:13:00;4.35;;;0.65;;
46897;SDS011;32646;50.958;6.258;2023-03-14T09:15:29;2.25;;;0.82;;
46897;SDS011;32646;50.958;6.258;2023-03-14T09:17:56;1.75;;;0.75;;
46897;SDS011;32646;50.958;6.258;2023-03-14T09:20:23;1.23;;;0.60;;
46897;SDS011;32646;50.958;6.258;2023-03-14T09:23:00;2.30;;;0.82;;
46897;SDS011;32646;50.958;6.258;2023-03-14T09:25:27;3.35;;;1.38;;
46897;SDS011;32646;50.958;6.258;2023-03-14T09:27:55;3.15;;;1.40;;
46897;SDS011;32646;50.958;6.258;2023-03-14T09:30:24;2.97;;;1.10;;
46897;SDS011;32646;50.958;6.258;2023-03-14T09:32:50;3.35;;;1.25;;
46897;SDS011;32646;50.958;6.258;2023-03-14T09:35:17;1.55;;;0.80;;
46897;SDS011;32646;50.958;6.258;2023-03-14T09:37:44;2.28;;;0.98;;
46897;SDS011;32646;50.958;6.258;2023-03-14T09:40:12;2.25;;;0.85;;
46897;SDS011;32646;50.958;6.258;2023-03-14T09:42:41;3.10;;;1.33;;
46897;SDS011;32646;50.958;6.258;2023-03-14T09:45:18;2.05;;;0.85;;
46897;SDS011;32646;50.958;6.258;2023-03-14T09:47:54;3.28;;;1.10;;
46897;SDS011;32646;50.958;6.258;2023-03-14T09:50:26;3.30;;;1.50;;
46897;SDS011;32646;50.958;6.258;2023-03-14T09:52:59;2.90;;;1.30;;
46897;SDS011;32646;50.958;6.258;2023-03-14T09:55:30;3.80;;;1.00;;
46897;SDS011;32646;50.958;6.258;2023-03-14T09:58:02;1.63;;;0.80;;
46897;SDS011;32646;50.958;6.258;2023-03-14T10:00:34;2.60;;;0.82;;
46897;SDS011;32646;50.958;6.258;2023-03-14T10:05:38;4.20;;;0.90;;
46897;SDS011;32646;50.958;6.258;2023-03-14T10:08:08;1.30;;;0.52;;
46897;SDS011;32646;50.958;6.258;2023-03-14T10:16:03;1.30;;;0.50;;
46897;SDS011;32646;50.958;6.258;2023-03-14T10:18:31;3.50;;;0.60;;
46897;SDS011;32646;50.958;6.258;2023-03-14T10:21:03;1.58;;;0.55;;
46897;SDS011;32646;50.958;6.258;2023-03-14T10:23:30;2.95;;;0.73;;
46897;SDS011;32646;50.958;6.258;2023-03-14T10:26:15;2.40;;;0.60;;
46897;SDS011;32646;50.958;6.258;2023-03-14T10:28:44;2.28;;;0.70;;
46897;SDS011;32646;50.958;6.258;2023-03-14T10:31:16;1.80;;;0.70;;
46897;SDS011;32646;50.958;6.258;2023-03-14T10:33:56;2.63;;;0.60;;
46897;SDS011;32646;50.958;6.258;2023-03-14T10:36:27;1.30;;;0.55;;
46897;SDS011;32646;50.958;6.258;2023-03-14T10:41:48;1.73;;;0.47;;
46897;SDS011;32646;50.958;6.258;2023-03-14T10:44:20;3.28;;;0.70;;
46897;SDS011;32646;50.958;6.258;2023-03-14T10:46:56;0.55;;;0.22;;
46897;SDS011;32646;50.958;6.258;2023-03-14T10:49:30;3.35;;;0.70;;
46897;SDS011;32646;50.958;6.258;2023-03-14T10:52:00;2.08;;;0.70;;
46897;SDS011;32646;50.958;6.258;2023-03-14T10:54:38;2.38;;;0.90;;
46897;SDS011;32646;50.958;6.258;2023-03-14T10:57:04;3.03;;;0.85;;
46897;SDS011;32646;50.958;6.258;2023-03-14T10:59:35;2.47;;;0.73;;
46897;SDS011;32646;50.958;6.258;2023-03-14T11:02:27;5.25;;;1.40;;
46897;SDS011;32646;50.958;6.258;2023-03-14T11:05:18;2.22;;;0.82;;
46897;SDS011;32646;50.958;6.258;2023-03-14T11:07:55;2.75;;;0.82;;
46897;SDS011;32646;50.958;6.258;2023-03-14T11:10:34;3.42;;;0.95;;
46897;SDS011;32646;50.958;6.258;2023-03-14T11:18:48;1.80;;;0.70;;
46897;SDS011;32646;50.958;6.258;2023-03-14T11:21:25;2.63;;;0.93;;
46897;SDS011;32646;50.958;6.258;2023-03-14T11:27:13;1.13;;;0.68;;
46897;SDS011;32646;50.958;6.258;2023-03-14T11:29:47;1.17;;;0.47;;
46897;SDS011;32646;50.958;6.258;2023-03-14T11:35:03;0.70;;;0.30;;
46897;SDS011;32646;50.958;6.258;2023-03-14T11:37:46;0.95;;;0.40;;
46897;SDS011;32646;50.958;6.258;2023-03-14T11:40:26;1.15;;;0.47;;
46897;SDS011;32646;50.958;6.258;2023-03-14T11:42:55;1.70;;;0.50;;
46897;SDS011;32646;50.958;6.258;2023-03-14T11:45:37;1.33;;;0.50;;
46897;SDS011;32646;50.958;6.258;2023-03-14T11:50:43;2.00;;;0.90;;
46897;SDS011;32646;50.958;6.258;2023-03-14T11:55:39;5.32;;;0.95;;
46897;SDS011;32646;50.958;6.258;2023-03-14T11:58:19;3.08;;;1.00;;
46897;SDS011;32646;50.958;6.258;2023-03-14T12:00:51;1.40;;;0.50;;
46897;SDS011;32646;50.958;6.258;2023-03-14T12:09:03;8.73;;;2.30;;
46897;SDS011;32646;50.958;6.258;2023-03-14T12:14:39;6.63;;;1.73;;
46897;SDS011;32646;50.958;6.258;2023-03-14T12:17:21;1.40;;;0.60;;
46897;SDS011;32646;50.958;6.258;2023-03-14T12:19:48;3.88;;;0.90;;
46897;SDS011;32646;50.958;6.258;2023-03-14T12:22:52;3.88;;;1.70;;
46897;SDS011;32646;50.958;6.258;2023-03-14T12:25:38;3.08;;;0.90;;
46897;SDS011;32646;50.958;6.258;2023-03-14T12:28:21;6.78;;;1.10;;
46897;SDS011;32646;50.958;6.258;2023-03-14T12:30:57;2.70;;;0.65;;
46897;SDS011;32646;50.958;6.258;2023-03-14T12:34:02;3.28;;;0.90;;
46897;SDS011;32646;50.958;6.258;2023-03-14T12:42:13;4.45;;;0.55;;
46897;SDS011;32646;50.958;6.258;2023-03-14T12:45:23;11.27;;;3.67;;
46897;SDS011;32646;50.958;6.258;2023-03-14T12:47:53;6.05;;;1.33;;
46897;SDS011;32646;50.958;6.258;2023-03-14T12:51:12;3.40;;;1.00;;
46897;SDS011;32646;50.958;6.258;2023-03-14T13:01:37;10.98;;;2.42;;
46897;SDS011;32646;50.958;6.258;2023-03-14T13:04:19;7.63;;;1.70;;
46897;SDS011;32646;50.958;6.258;2023-03-14T13:07:12;7.63;;;1.38;;
46897;SDS011;32646;50.958;6.258;2023-03-14T13:09:55;4.10;;;0.80;;
46897;SDS011;32646;50.958;6.258;2023-03-14T13:12:27;4.95;;;1.48;;
46897;SDS011;32646;50.958;6.258;2023-03-14T13:15:16;4.22;;;0.98;;
46897;SDS011;32646;50.958;6.258;2023-03-14T13:17:59;5.72;;;1.17;;
46897;SDS011;32646;50.958;6.258;2023-03-14T13:20:38;10.73;;;1.33;;
46897;SDS011;32646;50.958;6.258;2023-03-14T13:23:24;5.50;;;1.13;;
46897;SDS011;32646;50.958;6.258;2023-03-14T13:25:52;4.22;;;1.10;;
46897;SDS011;32646;50.958;6.258;2023-03-14T13:28:19;9.98;;;1.42;;
46897;SDS011;32646;50.958;6.258;2023-03-14T13:30:48;4.40;;;0.80;;
46897;SDS011;32646;50.958;6.258;2023-03-14T13:33:20;6.93;;;1.38;;
46897;SDS011;32646;50.958;6.258;2023-03-14T13:35:49;6.72;;;1.25;;
46897;SDS011;32646;50.958;6.258;2023-03-14T13:38:22;5.03;;;1.13;;
46897;SDS011;32646;50.958;6.258;2023-03-14T13:43:30;5.38;;;1.27;;
46897;SDS011;32646;50.958;6.258;2023-03-14T13:46:03;2.90;;;0.70;;
46897;SDS011;32646;50.958;6.258;2023-03-14T13:48:31;8.80;;;1.35;;
46897;SDS011;32646;50.958;6.258;2023-03-14T13:51:10;9.23;;;2.17;;
46897;SDS011;32646;50.958;6.258;2023-03-14T13:53:46;8.93;;;1.42;;
46897;SDS011;32646;50.958;6.258;2023-03-14T13:56:15;6.72;;;1.48;;
46897;SDS011;32646;50.958;6.258;2023-03-14T13:58:43;6.03;;;1.45;;
46897;SDS011;32646;50.958;6.258;2023-03-14T14:01:13;5.45;;;1.10;;
46897;SDS011;32646;50.958;6.258;2023-03-14T14:04:07;8.23;;;1.33;;
46897;SDS011;32646;50.958;6.258;2023-03-14T14:06:46;7.75;;;1.80;;
46897;SDS011;32646;50.958;6.258;2023-03-14T14:09:19;4.97;;;1.40;;
46897;SDS011;32646;50.958;6.258;2023-03-14T14:12:02;10.23;;;1.65;;
46897;SDS011;32646;50.958;6.258;2023-03-14T14:14:49;6.05;;;1.80;;
46897;SDS011;32646;50.958;6.258;2023-03-14T14:17:18;7.68;;;1.77;;
46897;SDS011;32646;50.958;6.258;2023-03-14T14:19:54;6.72;;;1.17;;
46897;SDS011;32646;50.958;6.258;2023-03-14T14:22:21;10.63;;;1.75;;
46897;SDS011;32646;50.958;6.258;2023-03-14T14:24:48;9.13;;;1.25;;
46897;SDS011;32646;50.958;6.258;2023-03-14T14:27:16;7.95;;;1.73;;
46897;SDS011;32646;50.958;6.258;2023-03-14T14:30:28;6.28;;;1.52;;
46897;SDS011;32646;50.958;6.258;2023-03-14T14:32:46;8.23;;;1.77;;
46897;SDS011;32646;50.958;6.258;2023-03-14T14:35:30;7.35;;;1.23;;
46897;SDS011;32646;50.958;6.258;2023-03-14T14:37:59;8.57;;;1.60;;
46897;SDS011;32646;50.958;6.258;2023-03-14T14:40:29;9.05;;;1.50;;
46897;SDS011;32646;50.958;6.258;2023-03-14T14:43:03;6.35;;;1.33;;
46897;SDS011;32646;50.958;6.258;2023-03-14T14:45:32;7.50;;;1.08;;
46897;SDS011;32646;50.958;6.258;2023-03-14T14:50:30;9.80;;;1.52;;
46897;SDS011;32646;50.958;6.258;2023-03-14T14:53:01;7.13;;;1.60;;
46897;SDS011;32646;50.958;6.258;2023-03-14T14:55:43;8.13;;;1.33;;
46897;SDS011;32646;50.958;6.258;2023-03-14T14:58:24;6.20;;;1.33;;
46897;SDS011;32646;50.958;6.258;2023-03-14T15:03:28;4.90;;;1.02;;
46897;SDS011;32646;50.958;6.258;2023-03-14T15:05:57;6.32;;;1.02;;
46897;SDS011;32646;50.958;6.258;2023-03-14T15:08:24;5.75;;;1.83;;
46897;SDS011;32646;50.958;6.258;2023-03-14T15:10:51;4.40;;;1.00;;
46897;SDS011;32646;50.958;6.258;2023-03-14T15:13:18;5.00;;;1.63;;
46897;SDS011;32646;50.958;6.258;2023-03-14T15:15:45;9.15;;;1.45;;
46897;SDS011;32646;50.958;6.258;2023-03-14T15:18:13;11.70;;;1.33;;
46897;SDS011;32646;50.958;6.258;2023-03-14T15:20:42;7.28;;;1.33;;
46897;SDS011;32646;50.958;6.258;2023-03-14T15:23:10;4.88;;;0.95;;
46897;SDS011;32646;50.958;6.258;2023-03-14T15:25:37;6.68;;;1.13;;
46897;SDS011;32646;50.958;6.258;2023-03-14T15:28:21;9.60;;;1.42;;
46897;SDS011;32646;50.958;6.258;2023-03-14T15:30:51;11.98;;;1.90;;
46897;SDS011;32646;50.958;6.258;2023-03-14T15:33:19;6.05;;;1.23;;
46897;SDS011;32646;50.958;6.258;2023-03-14T15:35:47;10.70;;;1.15;;
46897;SDS011;32646;50.958;6.258;2023-03-14T15:38:15;7.45;;;1.17;;
46897;SDS011;32646;50.958;6.258;2023-03-14T15:40:44;10.80;;;1.60;;
46897;SDS011;32646;50.958;6.258;2023-03-14T15:43:11;9.13;;;1.83;;
46897;SDS011;32646;50.958;6.258;2023-03-14T15:45:37;7.35;;;1.33;;
46897;SDS011;32646;50.958;6.258;2023-03-14T15:48:04;5.68;;;1.30;;
46897;SDS011;32646;50.958;6.258;2023-03-14T15:50:31;7.80;;;1.48;;
46897;SDS011;32646;50.958;6.258;2023-03-14T15:52:57;9.98;;;1.80;;
46897;SDS011;32646;50.958;6.258;2023-03-14T15:55:24;6.90;;;1.35;;
46897;SDS011;32646;50.958;6.258;2023-03-14T15:57:51;12.60;;;1.88;;
46897;SDS011;32646;50.958;6.258;2023-03-14T16:00:18;4.97;;;1.00;;
46897;SDS011;32646;50.958;6.258;2023-03-14T16:02:45;8.52;;;2.00;;
46897;SDS011;32646;50.958;6.258;2023-03-14T16:05:12;8.65;;;1.58;;
46897;SDS011;32646;50.958;6.258;2023-03-14T16:07:39;4.30;;;1.02;;
46897;SDS011;32646;50.958;6.258;2023-03-14T16:10:07;2.72;;;0.77;;
46897;SDS011;32646;50.958;6.258;2023-03-14T16:12:36;4.55;;;1.15;;